sensor_id;sensor_type;location;lat;lon;timestamp;pressure;altitude;pressure_sealevel;temperature;humidity
16355;BME280;8287;51.644;8.494;2023-02-23T00:01:22;100021.91;;;11.80;79.44
16355;BME280;8287;51.644;8.494;2023-02-23T00:04:02;100029.22;;;11.83;80.16
16355;BME280;8287;51.644;8.494;2023-02-23T00:06:44;100031.38;;;11.89;80.14
16355;BME280;8287;51.644;8.494;2023-02-23T00:09:27;100041.22;;;11.89;80.47
16355;BME280;8287;51.644;8.494;2023-02-23T00:12:08;100029.50;;;11.90;80.26
16355;BME280;8287;51.644;8.494;2023-02-23T00:14:44;100034.38;;;11.88;80.43
16355;BME280;8287;51.644;8.494;2023-02-23T00:17:13;100035.13;;;11.88;80.55
16355;BME280;8287;51.644;8.494;2023-02-23T00:19:49;100035.28;;;11.92;80.39
16355;BME280;8287;51.644;8.494;2023-02-23T00:22:33;100036.06;;;11.92;80.96
16355;BME280;8287;51.644;8.494;2023-02-23T00:25:11;100038.88;;;11.96;80.25
16355;BME280;8287;51.644;8.494;2023-02-23T00:27:40;100040.41;;;11.97;80.68
16355;BME280;8287;51.644;8.494;2023-02-23T00:30:18;100033.72;;;11.91;80.95
16355;BME280;8287;51.644;8.494;2023-02-23T00:32:51;100025.31;;;11.89;81.48
16355;BME280;8287;51.644;8.494;2023-02-23T00:35:28;100033.72;;;11.91;81.02
16355;BME280;8287;51.644;8.494;2023-02-23T00:38:41;100034.66;;;11.95;81.37
16355;BME280;8287;51.644;8.494;2023-02-23T00:41:24;100032.63;;;11.92;81.52
16355;BME280;8287;51.644;8.494;2023-02-23T00:44:01;100034.66;;;11.95;81.60
16355;BME280;8287;51.644;8.494;2023-02-23T00:46:29;100035.56;;;11.99;81.57
16355;BME280;8287;51.644;8.494;2023-02-23T00:49:04;100039.31;;;11.98;81.87
16355;BME280;8287;51.644;8.494;2023-02-23T00:51:39;100033.22;;;11.97;81.45
16355;BME280;8287;51.644;8.494;2023-02-23T00:54:12;100030.91;;;11.96;81.51
16355;BME280;8287;51.644;8.494;2023-02-23T00:56:47;100031.34;;;11.98;81.99
16355;BME280;8287;51.644;8.494;2023-02-23T00:59:39;100032.25;;;12.02;81.52
16355;BME280;8287;51.644;8.494;2023-02-23T01:02:23;100034.91;;;12.02;81.88
16355;BME280;8287;51.644;8.494;2023-02-23T01:04:55;100034.91;;;12.02;82.14
16355;BME280;8287;51.644;8.494;2023-02-23T01:07:26;100034.16;;;12.01;82.11
16355;BME280;8287;51.644;8.494;2023-02-23T01:09:54;100030.25;;;11.99;82.21
16355;BME280;8287;51.644;8.494;2023-02-23T01:12:28;100037.25;;;12.03;82.37
16355;BME280;8287;51.644;8.494;2023-02-23T01:15:02;100033.50;;;12.04;82.55
16355;BME280;8287;51.644;8.494;2023-02-23T01:17:50;100030.38;;;12.02;82.45
16355;BME280;8287;51.644;8.494;2023-02-23T01:20:26;100031.19;;;12.03;82.60
16355;BME280;8287;51.644;8.494;2023-02-23T01:22:58;100021.84;;;11.97;83.25
16355;BME280;8287;51.644;8.494;2023-02-23T01:25:29;100022.44;;;11.94;82.95
16355;BME280;8287;51.644;8.494;2023-02-23T01:28:16;100021.97;;;12.00;83.00
16355;BME280;8287;51.644;8.494;2023-02-23T01:30:48;100027.59;;;11.99;83.10
16355;BME280;8287;51.644;8.494;2023-02-23T01:33:31;100029.59;;;12.02;82.75
16355;BME280;8287;51.644;8.494;2023-02-23T01:36:00;100024.16;;;11.98;83.20
16355;BME280;8287;51.644;8.494;2023-02-23T01:38:30;100028.03;;;12.01;83.69
16355;BME280;8287;51.644;8.494;2023-02-23T01:41:10;100036.50;;;12.03;83.37
16355;BME280;8287;51.644;8.494;2023-02-23T01:44:01;100026.94;;;12.02;83.46
16355;BME280;8287;51.644;8.494;2023-02-23T01:46:35;100025.72;;;11.99;83.61
16355;BME280;8287;51.644;8.494;2023-02-23T01:49:15;100025.88;;;12.03;83.74
16355;BME280;8287;51.644;8.494;2023-02-23T01:51:48;100030.69;;;12.01;83.46
16355;BME280;8287;51.644;8.494;2023-02-23T01:54:20;100031.63;;;12.05;83.63
16355;BME280;8287;51.644;8.494;2023-02-23T01:57:09;100025.06;;;12.02;83.63
16355;BME280;8287;51.644;8.494;2023-02-23T01:59:50;100030.84;;;12.04;83.62
16355;BME280;8287;51.644;8.494;2023-02-23T02:02:39;100028.97;;;12.05;83.50
16355;BME280;8287;51.644;8.494;2023-02-23T02:05:28;100028.19;;;12.04;83.01
16355;BME280;8287;51.644;8.494;2023-02-23T02:08:07;100022.88;;;12.04;83.04
16355;BME280;8287;51.644;8.494;2023-02-23T02:10:53;100013.66;;;12.02;83.61
16355;BME280;8287;51.644;8.494;2023-02-23T02:13:30;100019.91;;;12.06;83.55
16355;BME280;8287;51.644;8.494;2023-02-23T02:16:19;100016.00;;;12.03;83.56
16355;BME280;8287;51.644;8.494;2023-02-23T02:19:38;100015.69;;;12.05;83.88
16355;BME280;8287;51.644;8.494;2023-02-23T02:22:51;100007.44;;;11.98;84.23
16355;BME280;8287;51.644;8.494;2023-02-23T02:26:00;100014.19;;;11.95;84.90
16355;BME280;8287;51.644;8.494;2023-02-23T02:32:21;100013.28;;;11.91;85.28
16355;BME280;8287;51.644;8.494;2023-02-23T02:35:47;100008.72;;;11.92;85.43
16355;BME280;8287;51.644;8.494;2023-02-23T02:38:50;100009.69;;;11.87;85.33
16355;BME280;8287;51.644;8.494;2023-02-23T02:41:35;100012.47;;;11.91;85.74
16355;BME280;8287;51.644;8.494;2023-02-23T02:44:23;100008.94;;;11.87;85.78
16355;BME280;8287;51.644;8.494;2023-02-23T02:47:18;100011.25;;;11.88;86.37
16355;BME280;8287;51.644;8.494;2023-02-23T02:50:13;100000.47;;;11.85;86.58
16355;BME280;8287;51.644;8.494;2023-02-23T02:52:50;100010.28;;;11.93;86.71
16355;BME280;8287;51.644;8.494;2023-02-23T02:55:49;99999.53;;;11.89;86.66
16355;BME280;8287;51.644;8.494;2023-02-23T02:58:25;99997.66;;;11.90;87.04
16355;BME280;8287;51.644;8.494;2023-02-23T03:01:14;99994.84;;;11.86;87.16
16355;BME280;8287;51.644;8.494;2023-02-23T03:04:01;100003.28;;;11.88;87.37
16355;BME280;8287;51.644;8.494;2023-02-23T03:06:54;99993.97;;;11.82;87.14
16355;BME280;8287;51.644;8.494;2023-02-23T03:09:49;99998.16;;;11.83;87.48
16355;BME280;8287;51.644;8.494;2023-02-23T03:12:53;100004.06;;;11.89;87.63
16355;BME280;8287;51.644;8.494;2023-02-23T03:15:58;99999.53;;;11.89;87.78
16355;BME280;8287;51.644;8.494;2023-02-23T03:19:02;99993.44;;;11.89;87.42
16355;BME280;8287;51.644;8.494;2023-02-23T03:21:57;99994.44;;;11.76;88.96
16355;BME280;8287;51.644;8.494;2023-02-23T03:25:05;99998.03;;;11.80;89.30
16355;BME280;8287;51.644;8.494;2023-02-23T03:28:00;100003.47;;;11.83;89.44
16355;BME280;8287;51.644;8.494;2023-02-23T03:31:01;99995.97;;;11.85;88.77
16355;BME280;8287;51.644;8.494;2023-02-23T03:33:57;99997.69;;;11.81;89.98
16355;BME280;8287;51.644;8.494;2023-02-23T03:36:47;99990.81;;;11.80;90.48
16355;BME280;8287;51.644;8.494;2023-02-23T03:39:36;99996.59;;;11.82;91.08
16355;BME280;8287;51.644;8.494;2023-02-23T03:42:26;100003.00;;;11.81;91.21
16355;BME280;8287;51.644;8.494;2023-02-23T03:45:15;99994.25;;;11.81;90.78
16355;BME280;8287;51.644;8.494;2023-02-23T03:48:03;99989.41;;;11.83;91.07
16355;BME280;8287;51.644;8.494;2023-02-23T03:50:52;99989.25;;;11.79;91.02
16355;BME280;8287;51.644;8.494;2023-02-23T03:53:41;99988.81;;;11.77;91.41
16355;BME280;8287;51.644;8.494;2023-02-23T03:56:30;99989.59;;;11.78;91.46
16355;BME280;8287;51.644;8.494;2023-02-23T03:59:18;99986.94;;;11.78;91.49
16355;BME280;8287;51.644;8.494;2023-02-23T04:02:07;99986.47;;;11.76;91.66
16355;BME280;8287;51.644;8.494;2023-02-23T04:04:53;99986.03;;;11.74;92.23
16355;BME280;8287;51.644;8.494;2023-02-23T04:07:40;99995.09;;;11.73;92.11
16355;BME280;8287;51.644;8.494;2023-02-23T04:10:25;99985.88;;;11.70;92.62
16355;BME280;8287;51.644;8.494;2023-02-23T04:13:14;99986.31;;;11.72;92.02
16355;BME280;8287;51.644;8.494;2023-02-23T04:15:48;99982.91;;;11.72;92.10
16355;BME280;8287;51.644;8.494;2023-02-23T04:18:19;99981.34;;;11.71;91.96
16355;BME280;8287;51.644;8.494;2023-02-23T04:20:47;99986.66;;;11.71;92.68
16355;BME280;8287;51.644;8.494;2023-02-23T04:23:14;99992.75;;;11.71;92.48
16355;BME280;8287;51.644;8.494;2023-02-23T04:25:40;99989.47;;;11.74;92.47
16355;BME280;8287;51.644;8.494;2023-02-23T04:28:07;99989.78;;;11.73;92.42
16355;BME280;8287;51.644;8.494;2023-02-23T04:30:34;99991.31;;;11.74;92.49
16355;BME280;8287;51.644;8.494;2023-02-23T04:33:01;100000.84;;;11.75;92.44
16355;BME280;8287;51.644;8.494;2023-02-23T04:35:29;99996.63;;;11.74;92.57
16355;BME280;8287;51.644;8.494;2023-02-23T04:37:56;99995.09;;;11.73;92.33
16355;BME280;8287;51.644;8.494;2023-02-23T04:40:22;99989.78;;;11.73;92.81
16355;BME280;8287;51.644;8.494;2023-02-23T04:42:50;100003.50;;;11.75;92.48
16355;BME280;8287;51.644;8.494;2023-02-23T04:45:16;99997.44;;;11.74;92.07
16355;BME280;8287;51.644;8.494;2023-02-23T04:47:43;99987.88;;;11.73;92.33
16355;BME280;8287;51.644;8.494;2023-02-23T04:50:10;99997.09;;;11.76;92.51
16355;BME280;8287;51.644;8.494;2023-02-23T04:52:39;99993.97;;;11.74;92.42
16355;BME280;8287;51.644;8.494;2023-02-23T04:55:06;100001.28;;;11.77;91.85
16355;BME280;8287;51.644;8.494;2023-02-23T04:57:34;100000.38;;;11.73;92.51
16355;BME280;8287;51.644;8.494;2023-02-23T05:00:00;99998.97;;;11.75;92.74
16355;BME280;8287;51.644;8.494;2023-02-23T05:02:28;99999.28;;;11.74;92.38
16355;BME280;8287;51.644;8.494;2023-02-23T05:04:56;99998.19;;;11.75;92.00
16355;BME280;8287;51.644;8.494;2023-02-23T05:07:22;99992.75;;;11.71;92.90
16355;BME280;8287;51.644;8.494;2023-02-23T05:09:50;99993.84;;;11.70;92.72
16355;BME280;8287;51.644;8.494;2023-02-23T05:12:17;99995.38;;;11.71;92.19
16355;BME280;8287;51.644;8.494;2023-02-23T05:14:44;99995.59;;;11.66;92.53
16355;BME280;8287;51.644;8.494;2023-02-23T05:17:10;100002.59;;;11.71;92.24
16355;BME280;8287;51.644;8.494;2023-02-23T05:19:37;99996.03;;;11.68;92.44
16355;BME280;8287;51.644;8.494;2023-02-23T05:22:03;100000.56;;;11.68;92.45
16355;BME280;8287;51.644;8.494;2023-02-23T05:24:30;100002.91;;;11.69;93.44
16355;BME280;8287;51.644;8.494;2023-02-23T05:26:58;99993.38;;;11.68;92.89
16355;BME280;8287;51.644;8.494;2023-02-23T05:29:25;100001.66;;;11.67;92.77
16355;BME280;8287;51.644;8.494;2023-02-23T05:31:52;100000.25;;;11.69;93.27
16355;BME280;8287;51.644;8.494;2023-02-23T05:34:18;99996.34;;;11.67;92.76
16355;BME280;8287;51.644;8.494;2023-02-23T05:36:45;99999.78;;;11.67;92.90
16355;BME280;8287;51.644;8.494;2023-02-23T05:39:11;99990.91;;;11.63;92.96
16355;BME280;8287;51.644;8.494;2023-02-23T05:41:38;99988.88;;;11.60;93.68
16355;BME280;8287;51.644;8.494;2023-02-23T05:44:06;99992.00;;;11.62;93.01
16355;BME280;8287;51.644;8.494;2023-02-23T05:46:33;99988.44;;;11.58;93.46
16355;BME280;8287;51.644;8.494;2023-02-23T05:49:00;99999.50;;;11.60;93.41
16355;BME280;8287;51.644;8.494;2023-02-23T05:51:28;99994.19;;;11.60;93.12
16355;BME280;8287;51.644;8.494;2023-02-23T05:53:55;99994.50;;;11.59;93.73
16355;BME280;8287;51.644;8.494;2023-02-23T05:56:22;99997.66;;;11.61;93.76
16355;BME280;8287;51.644;8.494;2023-02-23T05:58:49;99997.66;;;11.61;93.50
16355;BME280;8287;51.644;8.494;2023-02-23T06:01:18;100002.16;;;11.60;93.81
16355;BME280;8287;51.644;8.494;2023-02-23T06:03:45;99998.41;;;11.61;93.69
16355;BME280;8287;51.644;8.494;2023-02-23T06:06:12;100007.59;;;11.64;93.12
16355;BME280;8287;51.644;8.494;2023-02-23T06:08:40;100009.97;;;11.65;93.11
16355;BME280;8287;51.644;8.494;2023-02-23T06:11:07;100011.50;;;11.66;93.00
16355;BME280;8287;51.644;8.494;2023-02-23T06:13:34;100013.81;;;11.68;93.37
16355;BME280;8287;51.644;8.494;2023-02-23T06:16:03;100010.72;;;11.66;93.31
16355;BME280;8287;51.644;8.494;2023-02-23T06:18:34;100013.38;;;11.66;92.96
16355;BME280;8287;51.644;8.494;2023-02-23T06:21:02;100012.91;;;11.64;93.56
16355;BME280;8287;51.644;8.494;2023-02-23T06:23:30;100018.88;;;11.61;93.18
16355;BME280;8287;51.644;8.494;2023-02-23T06:25:57;100021.63;;;11.64;93.42
16355;BME280;8287;51.644;8.494;2023-02-23T06:28:24;100018.69;;;11.66;93.17
16355;BME280;8287;51.644;8.494;2023-02-23T06:30:52;100020.56;;;11.65;93.48
16355;BME280;8287;51.644;8.494;2023-02-23T06:33:20;100027.28;;;11.63;93.47
16355;BME280;8287;51.644;8.494;2023-02-23T06:35:49;100026.34;;;11.59;93.92
16355;BME280;8287;51.644;8.494;2023-02-23T06:38:15;100025.59;;;11.58;94.25
16355;BME280;8287;51.644;8.494;2023-02-23T06:40:44;100031.66;;;11.59;94.31
16355;BME280;8287;51.644;8.494;2023-02-23T06:43:11;100035.69;;;11.56;94.52
16355;BME280;8287;51.644;8.494;2023-02-23T06:45:38;100034.66;;;11.57;94.26
16355;BME280;8287;51.644;8.494;2023-02-23T06:48:05;100036.78;;;11.55;94.42
16355;BME280;8287;51.644;8.494;2023-02-23T06:50:32;100039.94;;;11.57;94.81
16355;BME280;8287;51.644;8.494;2023-02-23T06:53:00;100044.31;;;11.62;94.08
16355;BME280;8287;51.644;8.494;2023-02-23T06:55:27;100046.97;;;11.62;94.53
16355;BME280;8287;51.644;8.494;2023-02-23T06:57:53;100052.88;;;11.59;94.62
16355;BME280;8287;51.644;8.494;2023-02-23T07:00:21;100051.78;;;11.60;93.99
16355;BME280;8287;51.644;8.494;2023-02-23T07:02:47;100052.56;;;11.60;94.49
16355;BME280;8287;51.644;8.494;2023-02-23T07:05:14;100053.19;;;11.66;93.60
16355;BME280;8287;51.644;8.494;2023-02-23T07:07:41;100056.78;;;11.70;93.72
16355;BME280;8287;51.644;8.494;2023-02-23T07:10:10;100051.31;;;11.66;92.95
16355;BME280;8287;51.644;8.494;2023-02-23T07:12:37;100058.63;;;11.69;93.17
16355;BME280;8287;51.644;8.494;2023-02-23T07:15:04;100053.19;;;11.66;93.70
16355;BME280;8287;51.644;8.494;2023-02-23T07:17:31;100063.66;;;11.54;94.64
16355;BME280;8287;51.644;8.494;2023-02-23T07:19:57;100064.91;;;11.39;95.69
16355;BME280;8287;51.644;8.494;2023-02-23T07:22:24;100068.22;;;11.36;96.15
16355;BME280;8287;51.644;8.494;2023-02-23T07:24:53;100063.06;;;11.31;96.47
16355;BME280;8287;51.644;8.494;2023-02-23T07:27:21;100067.59;;;11.31;96.51
16355;BME280;8287;51.644;8.494;2023-02-23T07:29:48;100066.66;;;11.35;96.86
16355;BME280;8287;51.644;8.494;2023-02-23T07:32:15;100063.84;;;11.40;96.31
16355;BME280;8287;51.644;8.494;2023-02-23T07:34:41;100069.75;;;11.46;96.33
16355;BME280;8287;51.644;8.494;2023-02-23T07:37:08;100069.41;;;11.56;95.99
16355;BME280;8287;51.644;8.494;2023-02-23T07:39:34;100064.09;;;11.56;95.22
16355;BME280;8287;51.644;8.494;2023-02-23T07:42:01;100074.59;;;11.61;95.09
16355;BME280;8287;51.644;8.494;2023-02-23T07:44:30;100081.91;;;11.64;95.01
16355;BME280;8287;51.644;8.494;2023-02-23T07:46:56;100075.81;;;11.63;95.01
16355;BME280;8287;51.644;8.494;2023-02-23T07:49:23;100070.50;;;11.63;94.88
16355;BME280;8287;51.644;8.494;2023-02-23T07:51:50;100071.31;;;11.64;94.96
16355;BME280;8287;51.644;8.494;2023-02-23T07:54:17;100070.19;;;11.65;95.08
16355;BME280;8287;51.644;8.494;2023-02-23T07:56:43;100070.50;;;11.63;94.85
16355;BME280;8287;51.644;8.494;2023-02-23T07:59:10;100075.97;;;11.67;95.15
16355;BME280;8287;51.644;8.494;2023-02-23T08:01:38;100087.53;;;11.71;95.07
16355;BME280;8287;51.644;8.494;2023-02-23T08:04:05;100086.91;;;11.65;95.35
16355;BME280;8287;51.644;8.494;2023-02-23T08:06:31;100084.25;;;11.57;95.73
16355;BME280;8287;51.644;8.494;2023-02-23T08:08:58;100087.22;;;11.64;95.93
16355;BME280;8287;51.644;8.494;2023-02-23T08:11:25;100077.53;;;11.68;95.83
16355;BME280;8287;51.644;8.494;2023-02-23T08:13:53;100086.28;;;11.68;95.95
16355;BME280;8287;51.644;8.494;2023-02-23T08:16:24;100091.28;;;11.70;95.78
16355;BME280;8287;51.644;8.494;2023-02-23T08:18:52;100085.31;;;11.73;95.25
16355;BME280;8287;51.644;8.494;2023-02-23T08:21:18;100093.75;;;11.75;94.87
16355;BME280;8287;51.644;8.494;2023-02-23T08:23:45;100084.06;;;11.79;94.44
16355;BME280;8287;51.644;8.494;2023-02-23T08:26:11;100088.28;;;11.80;94.49
16355;BME280;8287;51.644;8.494;2023-02-23T08:28:38;100085.94;;;11.78;94.33
16355;BME280;8287;51.644;8.494;2023-02-23T08:31:08;100088.28;;;11.71;94.77
16355;BME280;8287;51.644;8.494;2023-02-23T08:33:34;100085.00;;;11.74;95.59
16355;BME280;8287;51.644;8.494;2023-02-23T08:36:04;100089.53;;;11.82;94.84
16355;BME280;8287;51.644;8.494;2023-02-23T08:38:30;100092.94;;;11.83;95.04
16355;BME280;8287;51.644;8.494;2023-02-23T08:40:58;100099.63;;;11.89;94.36
16355;BME280;8287;51.644;8.494;2023-02-23T08:43:25;100099.63;;;11.89;94.52
16355;BME280;8287;51.644;8.494;2023-02-23T08:45:52;100098.84;;;11.88;94.93
16355;BME280;8287;51.644;8.494;2023-02-23T08:48:18;100099.00;;;11.92;94.51
16355;BME280;8287;51.644;8.494;2023-02-23T08:50:46;100102.91;;;11.94;94.39
16355;BME280;8287;51.644;8.494;2023-02-23T08:53:15;100103.69;;;11.95;94.19
16355;BME280;8287;51.644;8.494;2023-02-23T08:55:43;100107.56;;;11.97;94.22
16355;BME280;8287;51.644;8.494;2023-02-23T08:58:10;100109.91;;;11.99;93.50
16355;BME280;8287;51.644;8.494;2023-02-23T09:00:36;100108.34;;;11.98;93.43
16355;BME280;8287;51.644;8.494;2023-02-23T09:03:04;100104.00;;;11.93;93.99
16355;BME280;8287;51.644;8.494;2023-02-23T09:05:31;100111.31;;;11.96;93.46
16355;BME280;8287;51.644;8.494;2023-02-23T09:07:58;100118.69;;;11.91;93.79
16355;BME280;8287;51.644;8.494;2023-02-23T09:10:26;100120.38;;;11.95;93.77
16355;BME280;8287;51.644;8.494;2023-02-23T09:12:53;100125.22;;;11.93;93.68
16355;BME280;8287;51.644;8.494;2023-02-23T09:15:20;100122.88;;;11.92;94.04
16355;BME280;8287;51.644;8.494;2023-02-23T09:17:47;100130.41;;;11.90;93.70
16355;BME280;8287;51.644;8.494;2023-02-23T09:20:15;100126.94;;;11.89;94.36
16355;BME280;8287;51.644;8.494;2023-02-23T09:22:42;100130.41;;;11.90;94.18
16355;BME280;8287;51.644;8.494;2023-02-23T09:25:13;100126.66;;;11.91;94.86
16355;BME280;8287;51.644;8.494;2023-02-23T09:27:43;100133.50;;;11.92;94.45
16355;BME280;8287;51.644;8.494;2023-02-23T09:30:11;100136.31;;;11.95;94.59
16355;BME280;8287;51.644;8.494;2023-02-23T09:32:42;100140.06;;;11.94;94.74
16355;BME280;8287;51.644;8.494;2023-02-23T09:35:09;100140.88;;;11.95;94.63
16355;BME280;8287;51.644;8.494;2023-02-23T09:37:36;100133.19;;;11.93;94.68
16355;BME280;8287;51.644;8.494;2023-02-23T09:40:03;100143.97;;;11.97;94.33
16355;BME280;8287;51.644;8.494;2023-02-23T09:42:36;100143.31;;;12.00;94.15
16355;BME280;8287;51.644;8.494;2023-02-23T09:45:17;100139.13;;;11.99;94.65
16355;BME280;8287;51.644;8.494;2023-02-23T09:47:57;100144.56;;;12.02;94.54
16355;BME280;8287;51.644;8.494;2023-02-23T09:50:29;100153.34;;;12.03;94.85
16355;BME280;8287;51.644;8.494;2023-02-23T09:52:59;100141.13;;;12.02;94.48
16355;BME280;8287;51.644;8.494;2023-02-23T09:55:28;100150.03;;;11.97;94.97
16355;BME280;8287;51.644;8.494;2023-02-23T09:57:55;100152.69;;;11.97;94.79
16355;BME280;8287;51.644;8.494;2023-02-23T10:00:26;100148.50;;;11.96;94.66
16355;BME280;8287;51.644;8.494;2023-02-23T10:03:02;100154.13;;;11.95;95.15
16355;BME280;8287;51.644;8.494;2023-02-23T10:05:34;100155.09;;;11.82;95.21
16355;BME280;8287;51.644;8.494;2023-02-23T10:08:05;100157.28;;;11.80;95.65
16355;BME280;8287;51.644;8.494;2023-02-23T10:10:39;100154.34;;;11.73;95.96
16355;BME280;8287;51.644;8.494;2023-02-23T10:13:14;100154.78;;;11.75;95.51
16355;BME280;8287;51.644;8.494;2023-02-23T10:15:50;100157.91;;;11.77;96.04
16355;BME280;8287;51.644;8.494;2023-02-23T10:18:29;100158.69;;;11.69;95.80
16355;BME280;8287;51.644;8.494;2023-02-23T10:21:02;100169.47;;;11.72;96.05
16355;BME280;8287;51.644;8.494;2023-02-23T10:23:33;100165.41;;;11.75;95.52
16355;BME280;8287;51.644;8.494;2023-02-23T10:26:02;100171.16;;;11.77;95.63
16355;BME280;8287;51.644;8.494;2023-02-23T10:28:35;100173.81;;;11.77;95.50
16355;BME280;8287;51.644;8.494;2023-02-23T10:31:22;100168.84;;;11.67;96.29
16355;BME280;8287;51.644;8.494;2023-02-23T10:33:53;100169.47;;;11.72;95.71
16355;BME280;8287;51.644;8.494;2023-02-23T10:36:30;100172.31;;;11.67;96.06
16355;BME280;8287;51.644;8.494;2023-02-23T10:39:00;100174.16;;;11.67;96.23
16355;BME280;8287;51.644;8.494;2023-02-23T10:41:27;100171.34;;;11.72;96.03
16355;BME280;8287;51.644;8.494;2023-02-23T10:43:54;100171.50;;;11.67;96.50
16355;BME280;8287;51.644;8.494;2023-02-23T10:46:24;100183.06;;;11.71;96.20
16355;BME280;8287;51.644;8.494;2023-02-23T10:48:56;100179.31;;;11.72;96.08
16355;BME280;8287;51.644;8.494;2023-02-23T10:51:28;100174.31;;;11.70;96.76
16355;BME280;8287;51.644;8.494;2023-02-23T10:53:55;100175.72;;;11.68;96.42
16355;BME280;8287;51.644;8.494;2023-02-23T10:56:22;100178.06;;;11.69;96.85
16355;BME280;8287;51.644;8.494;2023-02-23T10:58:50;100173.22;;;11.71;96.79
16355;BME280;8287;51.644;8.494;2023-02-23T11:01:33;100174.00;;;11.72;96.75
16355;BME280;8287;51.644;8.494;2023-02-23T11:04:12;100173.22;;;11.71;97.18
16355;BME280;8287;51.644;8.494;2023-02-23T11:06:41;100176.66;;;11.72;96.72
16355;BME280;8287;51.644;8.494;2023-02-23T11:09:26;100171.97;;;11.69;96.83
16355;BME280;8287;51.644;8.494;2023-02-23T11:11:55;100177.28;;;11.77;97.07
16355;BME280;8287;51.644;8.494;2023-02-23T11:14:23;100173.06;;;11.76;96.98
16355;BME280;8287;51.644;8.494;2023-02-23T11:16:54;100169.03;;;11.62;96.69
16355;BME280;8287;51.644;8.494;2023-02-23T11:19:26;100170.25;;;11.73;97.00
16355;BME280;8287;51.644;8.494;2023-02-23T11:21:55;100177.13;;;11.82;96.29
16355;BME280;8287;51.644;8.494;2023-02-23T11:24:24;100170.91;;;11.70;96.67
16355;BME280;8287;51.644;8.494;2023-02-23T11:26:53;100178.38;;;11.76;96.33
16355;BME280;8287;51.644;8.494;2023-02-23T11:29:26;100173.69;;;11.82;96.48
16355;BME280;8287;51.644;8.494;2023-02-23T11:32:00;100171.47;;;11.84;96.31
16355;BME280;8287;51.644;8.494;2023-02-23T11:34:32;100166.19;;;11.50;97.76
16355;BME280;8287;51.644;8.494;2023-02-23T11:37:02;100167.75;;;11.68;98.08
16355;BME280;8287;51.644;8.494;2023-02-23T11:39:29;100169.00;;;11.79;97.28
16355;BME280;8287;51.644;8.494;2023-02-23T11:42:13;100165.06;;;11.85;97.04
16355;BME280;8287;51.644;8.494;2023-02-23T11:44:41;100165.28;;;11.63;97.55
16355;BME280;8287;51.644;8.494;2023-02-23T11:47:15;100165.88;;;11.77;97.61
16355;BME280;8287;51.644;8.494;2023-02-23T11:49:44;100162.16;;;11.61;96.84
16355;BME280;8287;51.644;8.494;2023-02-23T11:52:13;100158.84;;;11.55;97.20
16355;BME280;8287;51.644;8.494;2023-02-23T11:54:48;100160.75;;;11.72;97.40
16355;BME280;8287;51.644;8.494;2023-02-23T11:57:19;100155.72;;;11.53;97.37
16355;BME280;8287;51.644;8.494;2023-02-23T11:59:47;100158.84;;;11.55;98.68
16355;BME280;8287;51.644;8.494;2023-02-23T12:02:21;100152.28;;;11.78;98.47
16355;BME280;8287;51.644;8.494;2023-02-23T12:04:51;100157.25;;;11.97;97.28
16355;BME280;8287;51.644;8.494;2023-02-23T12:07:33;100155.66;;;12.04;96.08
16355;BME280;8287;51.644;8.494;2023-02-23T12:10:09;100155.16;;;12.11;95.41
16355;BME280;8287;51.644;8.494;2023-02-23T12:12:44;100152.84;;;12.09;95.15
16355;BME280;8287;51.644;8.494;2023-02-23T12:15:36;100146.13;;;12.12;94.86
16355;BME280;8287;51.644;8.494;2023-02-23T12:18:13;100154.81;;;12.21;94.69
16355;BME280;8287;51.644;8.494;2023-02-23T12:20:43;100149.69;;;12.16;94.79
16355;BME280;8287;51.644;8.494;2023-02-23T12:23:16;100149.69;;;12.16;94.84
16355;BME280;8287;51.644;8.494;2023-02-23T12:25:47;100142.66;;;12.20;94.13
16355;BME280;8287;51.644;8.494;2023-02-23T12:28:21;100140.75;;;12.20;94.58
16355;BME280;8287;51.644;8.494;2023-02-23T12:30:56;100138.88;;;12.21;94.71
16355;BME280;8287;51.644;8.494;2023-02-23T12:33:29;100141.34;;;12.26;94.42
16355;BME280;8287;51.644;8.494;2023-02-23T12:36:02;100150.28;;;12.21;94.59
16355;BME280;8287;51.644;8.494;2023-02-23T12:38:36;100140.44;;;12.22;94.55
16355;BME280;8287;51.644;8.494;2023-02-23T12:41:10;100147.00;;;12.24;93.90
16355;BME280;8287;51.644;8.494;2023-02-23T12:43:43;100148.38;;;12.30;93.98
16355;BME280;8287;51.644;8.494;2023-02-23T12:46:17;100137.88;;;12.34;94.37
16355;BME280;8287;51.644;8.494;2023-02-23T12:48:54;100132.72;;;12.37;93.94
16355;BME280;8287;51.644;8.494;2023-02-23T12:51:27;100140.38;;;12.39;94.29
16355;BME280;8287;51.644;8.494;2023-02-23T12:53:55;100138.34;;;12.36;93.88
16355;BME280;8287;51.644;8.494;2023-02-23T12:56:34;100134.47;;;12.33;93.47
16355;BME280;8287;51.644;8.494;2023-02-23T12:59:22;100135.72;;;12.27;94.03
16355;BME280;8287;51.644;8.494;2023-02-23T13:01:56;100144.75;;;12.35;93.66
16355;BME280;8287;51.644;8.494;2023-02-23T13:04:57;100137.38;;;12.40;93.78
16355;BME280;8287;51.644;8.494;2023-02-23T13:07:37;100135.22;;;12.34;93.63
16355;BME280;8287;51.644;8.494;2023-02-23T13:10:14;100145.41;;;12.32;92.88
16355;BME280;8287;51.644;8.494;2023-02-23T13:12:52;100147.59;;;12.30;93.26
16355;BME280;8287;51.644;8.494;2023-02-23T13:15:25;100154.03;;;12.20;92.80
16355;BME280;8287;51.644;8.494;2023-02-23T13:17:59;100146.22;;;12.15;92.63
16355;BME280;8287;51.644;8.494;2023-02-23T13:20:34;100154.88;;;12.04;92.49
16355;BME280;8287;51.644;8.494;2023-02-23T13:23:09;100157.25;;;11.97;93.15
16355;BME280;8287;51.644;8.494;2023-02-23T13:25:45;100149.72;;;11.99;92.67
16355;BME280;8287;51.644;8.494;2023-02-23T13:31:01;100144.88;;;12.01;93.11
16355;BME280;8287;51.644;8.494;2023-02-23T13:33:28;100151.94;;;11.97;92.71
16355;BME280;8287;51.644;8.494;2023-02-23T13:36:01;100141.78;;;11.99;92.92
16355;BME280;8287;51.644;8.494;2023-02-23T13:38:34;100148.19;;;11.98;92.81
16355;BME280;8287;51.644;8.494;2023-02-23T13:41:10;100148.03;;;11.94;93.28
16355;BME280;8287;51.644;8.494;2023-02-23T13:43:46;100148.69;;;11.91;92.61
16355;BME280;8287;51.644;8.494;2023-02-23T13:46:27;100157.91;;;11.85;92.65